sensor_id;sensor_type;location;lat;lon;timestamp;P1;durP1;ratioP1;P2;durP2;ratioP2
16642;SDS011;8435;52.184;5.406;2022-07-31T00:01:59;3.65;;;2.30;;
16642;SDS011;8435;52.184;5.406;2022-07-31T00:04:27;2.60;;;2.40;;
16642;SDS011;8435;52.184;5.406;2022-07-31T00:06:56;3.50;;;2.20;;
16642;SDS011;8435;52.184;5.406;2022-07-31T00:09:22;2.17;;;2.08;;
16642;SDS011;8435;52.184;5.406;2022-07-31T00:11:49;2.55;;;2.35;;
16642;SDS011;8435;52.184;5.406;2022-07-31T00:14:16;3.53;;;2.53;;
16642;SDS011;8435;52.184;5.406;2022-07-31T00:16:42;3.03;;;2.33;;
16642;SDS011;8435;52.184;5.406;2022-07-31T00:19:09;2.78;;;2.45;;
16642;SDS011;8435;52.184;5.406;2022-07-31T00:21:37;3.63;;;2.85;;
16642;SDS011;8435;52.184;5.406;2022-07-31T00:24:04;2.50;;;2.28;;
16642;SDS011;8435;52.184;5.406;2022-07-31T00:26:31;2.90;;;2.60;;
16642;SDS011;8435;52.184;5.406;2022-07-31T00:28:58;3.17;;;2.60;;
16642;SDS011;8435;52.184;5.406;2022-07-31T00:31:25;3.45;;;3.15;;
16642;SDS011;8435;52.184;5.406;2022-07-31T00:33:51;4.15;;;2.72;;
16642;SDS011;8435;52.184;5.406;2022-07-31T00:36:18;4.53;;;2.80;;
16642;SDS011;8435;52.184;5.406;2022-07-31T00:38:46;5.45;;;3.13;;
16642;SDS011;8435;52.184;5.406;2022-07-31T00:41:13;2.90;;;2.78;;
16642;SDS011;8435;52.184;5.406;2022-07-31T00:43:39;3.15;;;2.85;;
16642;SDS011;8435;52.184;5.406;2022-07-31T00:46:06;4.00;;;3.17;;
16642;SDS011;8435;52.184;5.406;2022-07-31T00:48:33;3.05;;;2.75;;
16642;SDS011;8435;52.184;5.406;2022-07-31T00:51:00;2.90;;;2.70;;
16642;SDS011;8435;52.184;5.406;2022-07-31T00:53:27;2.97;;;2.67;;
16642;SDS011;8435;52.184;5.406;2022-07-31T00:55:55;3.08;;;2.75;;
16642;SDS011;8435;52.184;5.406;2022-07-31T00:58:22;3.28;;;2.53;;
16642;SDS011;8435;52.184;5.406;2022-07-31T01:00:49;3.33;;;3.03;;
16642;SDS011;8435;52.184;5.406;2022-07-31T01:03:16;3.35;;;2.90;;
16642;SDS011;8435;52.184;5.406;2022-07-31T01:05:43;3.20;;;2.92;;
16642;SDS011;8435;52.184;5.406;2022-07-31T01:08:10;4.00;;;3.25;;
16642;SDS011;8435;52.184;5.406;2022-07-31T01:10:41;3.30;;;3.03;;
16642;SDS011;8435;52.184;5.406;2022-07-31T01:13:16;3.33;;;2.95;;
16642;SDS011;8435;52.184;5.406;2022-07-31T01:15:47;3.90;;;3.00;;
16642;SDS011;8435;52.184;5.406;2022-07-31T01:18:15;3.05;;;2.85;;
16642;SDS011;8435;52.184;5.406;2022-07-31T01:20:42;3.10;;;2.90;;
16642;SDS011;8435;52.184;5.406;2022-07-31T01:23:33;3.20;;;2.90;;
16642;SDS011;8435;52.184;5.406;2022-07-31T01:26:15;2.80;;;2.60;;
16642;SDS011;8435;52.184;5.406;2022-07-31T01:28:55;3.25;;;2.90;;
16642;SDS011;8435;52.184;5.406;2022-07-31T01:31:33;3.30;;;3.00;;
16642;SDS011;8435;52.184;5.406;2022-07-31T01:34:04;5.65;;;3.42;;
16642;SDS011;8435;52.184;5.406;2022-07-31T01:36:36;3.05;;;2.85;;
16642;SDS011;8435;52.184;5.406;2022-07-31T01:39:07;3.35;;;3.05;;
16642;SDS011;8435;52.184;5.406;2022-07-31T01:41:35;3.75;;;2.83;;
16642;SDS011;8435;52.184;5.406;2022-07-31T01:44:07;2.80;;;2.63;;
16642;SDS011;8435;52.184;5.406;2022-07-31T01:46:36;3.70;;;2.85;;
16642;SDS011;8435;52.184;5.406;2022-07-31T01:49:06;2.72;;;2.53;;
16642;SDS011;8435;52.184;5.406;2022-07-31T01:51:36;3.92;;;2.65;;
16642;SDS011;8435;52.184;5.406;2022-07-31T01:54:04;4.28;;;3.05;;
16642;SDS011;8435;52.184;5.406;2022-07-31T01:56:31;3.38;;;3.05;;
16642;SDS011;8435;52.184;5.406;2022-07-31T01:58:59;4.05;;;3.22;;
16642;SDS011;8435;52.184;5.406;2022-07-31T02:01:28;3.35;;;3.10;;
16642;SDS011;8435;52.184;5.406;2022-07-31T02:03:56;3.25;;;2.95;;
16642;SDS011;8435;52.184;5.406;2022-07-31T02:06:24;4.00;;;2.97;;
16642;SDS011;8435;52.184;5.406;2022-07-31T02:08:52;3.25;;;2.95;;
16642;SDS011;8435;52.184;5.406;2022-07-31T02:11:20;3.15;;;2.95;;
16642;SDS011;8435;52.184;5.406;2022-07-31T02:13:48;4.03;;;3.28;;
16642;SDS011;8435;52.184;5.406;2022-07-31T02:16:23;7.00;;;3.13;;
16642;SDS011;8435;52.184;5.406;2022-07-31T02:18:53;3.47;;;3.17;;
16642;SDS011;8435;52.184;5.406;2022-07-31T02:21:22;3.58;;;3.30;;
16642;SDS011;8435;52.184;5.406;2022-07-31T02:23:49;3.42;;;3.10;;
16642;SDS011;8435;52.184;5.406;2022-07-31T02:26:19;4.53;;;3.30;;
16642;SDS011;8435;52.184;5.406;2022-07-31T02:28:46;3.20;;;2.97;;
16642;SDS011;8435;52.184;5.406;2022-07-31T02:31:14;4.95;;;3.38;;
16642;SDS011;8435;52.184;5.406;2022-07-31T02:33:42;3.10;;;2.85;;
16642;SDS011;8435;52.184;5.406;2022-07-31T02:36:12;3.15;;;2.83;;
16642;SDS011;8435;52.184;5.406;2022-07-31T02:38:42;4.15;;;2.60;;
16642;SDS011;8435;52.184;5.406;2022-07-31T02:41:09;3.42;;;3.13;;
16642;SDS011;8435;52.184;5.406;2022-07-31T02:43:37;3.40;;;3.10;;
16642;SDS011;8435;52.184;5.406;2022-07-31T02:46:04;3.28;;;2.80;;
16642;SDS011;8435;52.184;5.406;2022-07-31T02:48:33;4.10;;;3.13;;
16642;SDS011;8435;52.184;5.406;2022-07-31T02:51:01;3.75;;;3.35;;
16642;SDS011;8435;52.184;5.406;2022-07-31T02:53:29;4.20;;;3.15;;
16642;SDS011;8435;52.184;5.406;2022-07-31T02:55:59;3.22;;;2.97;;
16642;SDS011;8435;52.184;5.406;2022-07-31T02:58:28;3.17;;;2.95;;
16642;SDS011;8435;52.184;5.406;2022-07-31T03:00:58;2.72;;;2.53;;
16642;SDS011;8435;52.184;5.406;2022-07-31T03:03:26;3.97;;;3.15;;
16642;SDS011;8435;52.184;5.406;2022-07-31T03:05:53;3.42;;;3.13;;
16642;SDS011;8435;52.184;5.406;2022-07-31T03:08:22;3.28;;;2.97;;
16642;SDS011;8435;52.184;5.406;2022-07-31T03:10:50;5.38;;;3.38;;
16642;SDS011;8435;52.184;5.406;2022-07-31T03:13:17;3.55;;;3.28;;
16642;SDS011;8435;52.184;5.406;2022-07-31T03:15:47;3.17;;;2.97;;
16642;SDS011;8435;52.184;5.406;2022-07-31T03:18:15;4.15;;;3.15;;
16642;SDS011;8435;52.184;5.406;2022-07-31T03:20:43;3.65;;;2.90;;
16642;SDS011;8435;52.184;5.406;2022-07-31T03:23:16;4.07;;;3.35;;
16642;SDS011;8435;52.184;5.406;2022-07-31T03:25:45;6.68;;;4.25;;
16642;SDS011;8435;52.184;5.406;2022-07-31T03:28:15;3.75;;;3.45;;
16642;SDS011;8435;52.184;5.406;2022-07-31T03:30:43;4.05;;;3.75;;
16642;SDS011;8435;52.184;5.406;2022-07-31T03:33:10;4.03;;;3.63;;
16642;SDS011;8435;52.184;5.406;2022-07-31T03:35:36;3.83;;;3.53;;
16642;SDS011;8435;52.184;5.406;2022-07-31T03:38:03;4.13;;;3.75;;
16642;SDS011;8435;52.184;5.406;2022-07-31T03:40:30;3.88;;;3.40;;
16642;SDS011;8435;52.184;5.406;2022-07-31T03:42:57;3.92;;;3.63;;
16642;SDS011;8435;52.184;5.406;2022-07-31T03:45:26;4.45;;;4.05;;
16642;SDS011;8435;52.184;5.406;2022-07-31T03:47:55;3.72;;;3.42;;
16642;SDS011;8435;52.184;5.406;2022-07-31T03:50:22;4.20;;;3.72;;
16642;SDS011;8435;52.184;5.406;2022-07-31T03:52:50;4.65;;;4.25;;
16642;SDS011;8435;52.184;5.406;2022-07-31T03:55:17;3.88;;;3.58;;
16642;SDS011;8435;52.184;5.406;2022-07-31T03:57:44;4.95;;;3.63;;
16642;SDS011;8435;52.184;5.406;2022-07-31T04:00:12;4.82;;;3.75;;
16642;SDS011;8435;52.184;5.406;2022-07-31T04:02:41;3.42;;;3.13;;
16642;SDS011;8435;52.184;5.406;2022-07-31T04:05:08;4.88;;;3.78;;
16642;SDS011;8435;52.184;5.406;2022-07-31T04:07:35;3.50;;;3.20;;
16642;SDS011;8435;52.184;5.406;2022-07-31T04:10:02;4.25;;;3.58;;
16642;SDS011;8435;52.184;5.406;2022-07-31T04:12:31;3.80;;;3.50;;
16642;SDS011;8435;52.184;5.406;2022-07-31T04:14:57;8.13;;;3.42;;
16642;SDS011;8435;52.184;5.406;2022-07-31T04:17:24;3.60;;;3.30;;
16642;SDS011;8435;52.184;5.406;2022-07-31T04:19:52;4.32;;;3.72;;
16642;SDS011;8435;52.184;5.406;2022-07-31T04:22:19;5.85;;;3.58;;
16642;SDS011;8435;52.184;5.406;2022-07-31T04:24:46;4.32;;;3.75;;
16642;SDS011;8435;52.184;5.406;2022-07-31T04:27:14;8.05;;;3.53;;
16642;SDS011;8435;52.184;5.406;2022-07-31T04:29:41;3.40;;;3.10;;
16642;SDS011;8435;52.184;5.406;2022-07-31T04:32:09;5.15;;;3.97;;
16642;SDS011;8435;52.184;5.406;2022-07-31T04:34:36;4.05;;;3.65;;
16642;SDS011;8435;52.184;5.406;2022-07-31T04:37:06;3.78;;;3.33;;
16642;SDS011;8435;52.184;5.406;2022-07-31T04:39:33;6.78;;;3.28;;
16642;SDS011;8435;52.184;5.406;2022-07-31T04:42:00;6.00;;;3.20;;
16642;SDS011;8435;52.184;5.406;2022-07-31T04:44:27;4.88;;;3.40;;
16642;SDS011;8435;52.184;5.406;2022-07-31T04:46:57;3.13;;;2.90;;
16642;SDS011;8435;52.184;5.406;2022-07-31T04:49:24;5.55;;;2.53;;
16642;SDS011;8435;52.184;5.406;2022-07-31T04:51:51;4.88;;;3.58;;
16642;SDS011;8435;52.184;5.406;2022-07-31T04:54:19;4.60;;;3.20;;
16642;SDS011;8435;52.184;5.406;2022-07-31T04:56:45;3.28;;;2.97;;
16642;SDS011;8435;52.184;5.406;2022-07-31T04:59:15;3.42;;;3.13;;
16642;SDS011;8435;52.184;5.406;2022-07-31T05:01:44;4.43;;;3.80;;
16642;SDS011;8435;52.184;5.406;2022-07-31T05:04:14;3.65;;;3.17;;
16642;SDS011;8435;52.184;5.406;2022-07-31T05:06:42;4.75;;;3.78;;
16642;SDS011;8435;52.184;5.406;2022-07-31T05:09:10;5.13;;;3.75;;
16642;SDS011;8435;52.184;5.406;2022-07-31T05:11:40;4.47;;;3.38;;
16642;SDS011;8435;52.184;5.406;2022-07-31T05:14:08;4.13;;;3.72;;
16642;SDS011;8435;52.184;5.406;2022-07-31T05:16:36;4.82;;;3.67;;
16642;SDS011;8435;52.184;5.406;2022-07-31T05:19:03;4.60;;;3.70;;
16642;SDS011;8435;52.184;5.406;2022-07-31T05:21:32;4.30;;;3.90;;
16642;SDS011;8435;52.184;5.406;2022-07-31T05:23:59;4.95;;;4.25;;
16642;SDS011;8435;52.184;5.406;2022-07-31T05:26:26;4.68;;;4.38;;
16642;SDS011;8435;52.184;5.406;2022-07-31T05:28:55;4.82;;;4.43;;
16642;SDS011;8435;52.184;5.406;2022-07-31T05:31:23;4.75;;;4.40;;
16642;SDS011;8435;52.184;5.406;2022-07-31T05:33:55;5.45;;;4.28;;
16642;SDS011;8435;52.184;5.406;2022-07-31T05:36:23;4.82;;;4.43;;
16642;SDS011;8435;52.184;5.406;2022-07-31T05:38:51;5.07;;;4.43;;
16642;SDS011;8435;52.184;5.406;2022-07-31T05:41:17;5.68;;;5.18;;
16642;SDS011;8435;52.184;5.406;2022-07-31T05:43:44;6.10;;;5.15;;
16642;SDS011;8435;52.184;5.406;2022-07-31T05:46:12;5.82;;;5.22;;
16642;SDS011;8435;52.184;5.406;2022-07-31T05:48:41;5.35;;;4.95;;
16642;SDS011;8435;52.184;5.406;2022-07-31T05:51:08;7.28;;;5.65;;
16642;SDS011;8435;52.184;5.406;2022-07-31T05:53:36;5.95;;;5.35;;
16642;SDS011;8435;52.184;5.406;2022-07-31T05:56:03;6.40;;;5.90;;
16642;SDS011;8435;52.184;5.406;2022-07-31T05:58:31;6.15;;;5.57;;
16642;SDS011;8435;52.184;5.406;2022-07-31T06:00:58;6.47;;;5.88;;
16642;SDS011;8435;52.184;5.406;2022-07-31T06:03:27;5.82;;;5.20;;
16642;SDS011;8435;52.184;5.406;2022-07-31T06:05:58;6.50;;;5.90;;
16642;SDS011;8435;52.184;5.406;2022-07-31T06:08:25;5.90;;;5.40;;
16642;SDS011;8435;52.184;5.406;2022-07-31T06:10:53;6.03;;;5.45;;
16642;SDS011;8435;52.184;5.406;2022-07-31T06:13:22;6.38;;;5.47;;
16642;SDS011;8435;52.184;5.406;2022-07-31T06:15:49;6.50;;;5.88;;
16642;SDS011;8435;52.184;5.406;2022-07-31T06:18:16;6.50;;;6.00;;
16642;SDS011;8435;52.184;5.406;2022-07-31T06:20:44;6.57;;;5.95;;
16642;SDS011;8435;52.184;5.406;2022-07-31T06:23:11;6.35;;;5.72;;
16642;SDS011;8435;52.184;5.406;2022-07-31T06:25:44;6.00;;;5.50;;
16642;SDS011;8435;52.184;5.406;2022-07-31T06:28:13;5.82;;;5.13;;
16642;SDS011;8435;52.184;5.406;2022-07-31T06:30:40;6.10;;;5.50;;
16642;SDS011;8435;52.184;5.406;2022-07-31T06:33:06;6.53;;;5.70;;
16642;SDS011;8435;52.184;5.406;2022-07-31T06:35:33;6.60;;;5.90;;
16642;SDS011;8435;52.184;5.406;2022-07-31T06:38:01;6.68;;;6.03;;
16642;SDS011;8435;52.184;5.406;2022-07-31T06:40:28;6.82;;;6.15;;
16642;SDS011;8435;52.184;5.406;2022-07-31T06:42:58;5.80;;;5.30;;
16642;SDS011;8435;52.184;5.406;2022-07-31T06:45:25;6.63;;;5.88;;
16642;SDS011;8435;52.184;5.406;2022-07-31T06:47:51;6.63;;;6.07;;
16642;SDS011;8435;52.184;5.406;2022-07-31T06:50:19;6.57;;;5.97;;
16642;SDS011;8435;52.184;5.406;2022-07-31T06:52:45;7.15;;;6.45;;
16642;SDS011;8435;52.184;5.406;2022-07-31T06:55:13;7.55;;;6.50;;
16642;SDS011;8435;52.184;5.406;2022-07-31T06:57:40;6.38;;;5.78;;
16642;SDS011;8435;52.184;5.406;2022-07-31T07:00:07;7.38;;;6.65;;
16642;SDS011;8435;52.184;5.406;2022-07-31T07:02:35;7.32;;;6.25;;
16642;SDS011;8435;52.184;5.406;2022-07-31T07:05:02;7.60;;;6.80;;
16642;SDS011;8435;52.184;5.406;2022-07-31T07:07:29;8.02;;;7.25;;
16642;SDS011;8435;52.184;5.406;2022-07-31T07:09:56;7.75;;;7.07;;
16642;SDS011;8435;52.184;5.406;2022-07-31T07:12:24;7.78;;;7.07;;
16642;SDS011;8435;52.184;5.406;2022-07-31T07:14:51;9.18;;;8.38;;
16642;SDS011;8435;52.184;5.406;2022-07-31T07:17:17;8.40;;;7.70;;
16642;SDS011;8435;52.184;5.406;2022-07-31T07:19:44;8.88;;;8.07;;
16642;SDS011;8435;52.184;5.406;2022-07-31T07:22:11;9.52;;;8.63;;
16642;SDS011;8435;52.184;5.406;2022-07-31T07:24:38;10.05;;;9.05;;
16642;SDS011;8435;52.184;5.406;2022-07-31T07:27:04;11.02;;;9.38;;
16642;SDS011;8435;52.184;5.406;2022-07-31T07:29:33;11.32;;;8.85;;
16642;SDS011;8435;52.184;5.406;2022-07-31T07:31:59;10.35;;;9.40;;
16642;SDS011;8435;52.184;5.406;2022-07-31T07:34:26;10.60;;;9.63;;
16642;SDS011;8435;52.184;5.406;2022-07-31T07:36:53;12.82;;;10.82;;
16642;SDS011;8435;52.184;5.406;2022-07-31T07:39:20;10.35;;;9.32;;
16642;SDS011;8435;52.184;5.406;2022-07-31T07:41:47;11.23;;;10.18;;
16642;SDS011;8435;52.184;5.406;2022-07-31T07:44:17;12.20;;;10.02;;
16642;SDS011;8435;52.184;5.406;2022-07-31T07:46:45;11.02;;;10.00;;
16642;SDS011;8435;52.184;5.406;2022-07-31T07:49:12;11.20;;;9.98;;
16642;SDS011;8435;52.184;5.406;2022-07-31T07:51:41;11.88;;;10.77;;
16642;SDS011;8435;52.184;5.406;2022-07-31T07:54:08;11.38;;;10.27;;
16642;SDS011;8435;52.184;5.406;2022-07-31T07:56:35;13.10;;;11.80;;
16642;SDS011;8435;52.184;5.406;2022-07-31T07:59:01;11.32;;;10.20;;
16642;SDS011;8435;52.184;5.406;2022-07-31T08:01:28;11.95;;;10.77;;
16642;SDS011;8435;52.184;5.406;2022-07-31T08:03:56;10.82;;;9.82;;
16642;SDS011;8435;52.184;5.406;2022-07-31T08:06:23;10.88;;;9.77;;
16642;SDS011;8435;52.184;5.406;2022-07-31T08:08:50;10.45;;;9.43;;
16642;SDS011;8435;52.184;5.406;2022-07-31T08:11:16;13.32;;;11.20;;
16642;SDS011;8435;52.184;5.406;2022-07-31T08:13:43;11.73;;;10.50;;
16642;SDS011;8435;52.184;5.406;2022-07-31T08:16:11;11.63;;;10.52;;
16642;SDS011;8435;52.184;5.406;2022-07-31T08:18:40;11.38;;;10.23;;
16642;SDS011;8435;52.184;5.406;2022-07-31T08:21:08;13.85;;;10.73;;
16642;SDS011;8435;52.184;5.406;2022-07-31T08:23:35;11.88;;;10.35;;
16642;SDS011;8435;52.184;5.406;2022-07-31T08:26:02;12.00;;;10.90;;
16642;SDS011;8435;52.184;5.406;2022-07-31T08:28:29;12.02;;;10.88;;
16642;SDS011;8435;52.184;5.406;2022-07-31T08:30:56;11.93;;;10.77;;
16642;SDS011;8435;52.184;5.406;2022-07-31T08:33:22;13.05;;;11.38;;
16642;SDS011;8435;52.184;5.406;2022-07-31T08:35:49;12.18;;;10.88;;
16642;SDS011;8435;52.184;5.406;2022-07-31T08:38:17;12.15;;;10.90;;
16642;SDS011;8435;52.184;5.406;2022-07-31T08:40:45;12.38;;;11.07;;
16642;SDS011;8435;52.184;5.406;2022-07-31T08:43:15;11.90;;;10.70;;
16642;SDS011;8435;52.184;5.406;2022-07-31T08:45:42;12.80;;;11.40;;
16642;SDS011;8435;52.184;5.406;2022-07-31T08:48:10;12.68;;;11.52;;
16642;SDS011;8435;52.184;5.406;2022-07-31T08:50:38;12.25;;;11.15;;
16642;SDS011;8435;52.184;5.406;2022-07-31T08:53:05;13.18;;;11.93;;
16642;SDS011;8435;52.184;5.406;2022-07-31T08:55:34;12.23;;;11.13;;
16642;SDS011;8435;52.184;5.406;2022-07-31T08:58:02;12.43;;;11.23;;
16642;SDS011;8435;52.184;5.406;2022-07-31T09:00:28;13.40;;;12.07;;
16642;SDS011;8435;52.184;5.406;2022-07-31T09:02:57;13.07;;;11.82;;
16642;SDS011;8435;52.184;5.406;2022-07-31T09:05:24;12.82;;;11.73;;
16642;SDS011;8435;52.184;5.406;2022-07-31T09:07:51;13.50;;;12.07;;
16642;SDS011;8435;52.184;5.406;2022-07-31T09:10:21;15.15;;;13.65;;
16642;SDS011;8435;52.184;5.406;2022-07-31T09:12:50;15.05;;;13.55;;
16642;SDS011;8435;52.184;5.406;2022-07-31T09:15:20;14.52;;;13.05;;
16642;SDS011;8435;52.184;5.406;2022-07-31T09:17:50;14.57;;;13.18;;
16642;SDS011;8435;52.184;5.406;2022-07-31T09:20:18;15.13;;;13.63;;
16642;SDS011;8435;52.184;5.406;2022-07-31T09:22:46;15.05;;;13.60;;
16642;SDS011;8435;52.184;5.406;2022-07-31T09:25:14;14.63;;;13.23;;
16642;SDS011;8435;52.184;5.406;2022-07-31T09:27:43;15.95;;;14.45;;
16642;SDS011;8435;52.184;5.406;2022-07-31T09:30:12;16.63;;;14.90;;
16642;SDS011;8435;52.184;5.406;2022-07-31T09:32:39;16.00;;;14.50;;
16642;SDS011;8435;52.184;5.406;2022-07-31T09:35:07;16.48;;;14.88;;
16642;SDS011;8435;52.184;5.406;2022-07-31T09:37:35;17.38;;;15.63;;
16642;SDS011;8435;52.184;5.406;2022-07-31T09:40:03;17.83;;;15.73;;
16642;SDS011;8435;52.184;5.406;2022-07-31T09:42:36;16.30;;;14.68;;
16642;SDS011;8435;52.184;5.406;2022-07-31T09:45:14;16.45;;;14.98;;
16642;SDS011;8435;52.184;5.406;2022-07-31T09:47:44;16.02;;;14.38;;
16642;SDS011;8435;52.184;5.406;2022-07-31T09:50:10;16.17;;;14.68;;
16642;SDS011;8435;52.184;5.406;2022-07-31T09:52:38;17.92;;;16.13;;
16642;SDS011;8435;52.184;5.406;2022-07-31T09:55:05;17.17;;;15.50;;
16642;SDS011;8435;52.184;5.406;2022-07-31T09:57:33;18.33;;;14.55;;
16642;SDS011;8435;52.184;5.406;2022-07-31T10:00:02;17.90;;;16.20;;
16642;SDS011;8435;52.184;5.406;2022-07-31T10:02:32;16.77;;;15.23;;
16642;SDS011;8435;52.184;5.406;2022-07-31T10:05:01;15.15;;;13.75;;
16642;SDS011;8435;52.184;5.406;2022-07-31T10:07:28;15.07;;;13.75;;
16642;SDS011;8435;52.184;5.406;2022-07-31T10:10:03;15.77;;;14.27;;
16642;SDS011;8435;52.184;5.406;2022-07-31T10:12:35;15.52;;;14.05;;
16642;SDS011;8435;52.184;5.406;2022-07-31T10:15:07;15.88;;;14.38;;
16642;SDS011;8435;52.184;5.406;2022-07-31T10:17:40;15.63;;;14.13;;
16642;SDS011;8435;52.184;5.406;2022-07-31T10:20:13;14.90;;;13.52;;
16642;SDS011;8435;52.184;5.406;2022-07-31T10:22:45;13.18;;;11.98;;
16642;SDS011;8435;52.184;5.406;2022-07-31T10:25:16;13.07;;;11.88;;
16642;SDS011;8435;52.184;5.406;2022-07-31T10:27:46;11.30;;;10.30;;
16642;SDS011;8435;52.184;5.406;2022-07-31T10:30:13;12.07;;;10.98;;
16642;SDS011;8435;52.184;5.406;2022-07-31T10:32:42;13.02;;;11.82;;
16642;SDS011;8435;52.184;5.406;2022-07-31T10:35:11;13.10;;;11.98;;
16642;SDS011;8435;52.184;5.406;2022-07-31T10:37:39;16.48;;;14.95;;
16642;SDS011;8435;52.184;5.406;2022-07-31T10:40:12;15.38;;;13.98;;
16642;SDS011;8435;52.184;5.406;2022-07-31T10:42:48;14.43;;;13.23;;
16642;SDS011;8435;52.184;5.406;2022-07-31T10:45:43;15.60;;;14.30;;
16642;SDS011;8435;52.184;5.406;2022-07-31T10:48:13;15.98;;;14.68;;
16642;SDS011;8435;52.184;5.406;2022-07-31T10:50:42;16.48;;;15.07;;
16642;SDS011;8435;52.184;5.406;2022-07-31T10:53:10;16.58;;;15.20;;
16642;SDS011;8435;52.184;5.406;2022-07-31T10:55:40;15.48;;;14.07;;
16642;SDS011;8435;52.184;5.406;2022-07-31T10:58:07;15.93;;;14.63;;
16642;SDS011;8435;52.184;5.406;2022-07-31T11:00:39;15.23;;;14.00;;
16642;SDS011;8435;52.184;5.406;2022-07-31T11:03:18;15.65;;;14.40;;
16642;SDS011;8435;52.184;5.406;2022-07-31T11:05:53;14.75;;;13.48;;
16642;SDS011;8435;52.184;5.406;2022-07-31T11:08:20;15.27;;;13.98;;
16642;SDS011;8435;52.184;5.406;2022-07-31T11:10:48;14.52;;;13.43;;
16642;SDS011;8435;52.184;5.406;2022-07-31T11:13:20;15.05;;;13.65;;
16642;SDS011;8435;52.184;5.406;2022-07-31T11:15:50;14.00;;;12.90;;
16642;SDS011;8435;52.184;5.406;2022-07-31T11:18:28;12.95;;;11.95;;
16642;SDS011;8435;52.184;5.406;2022-07-31T11:21:02;14.95;;;13.65;;
16642;SDS011;8435;52.184;5.406;2022-07-31T11:23:30;14.52;;;13.32;;
16642;SDS011;8435;52.184;5.406;2022-07-31T11:25:58;12.70;;;11.80;;
16642;SDS011;8435;52.184;5.406;2022-07-31T11:28:29;13.27;;;12.27;;
16642;SDS011;8435;52.184;5.406;2022-07-31T11:30:58;13.48;;;12.48;;
16642;SDS011;8435;52.184;5.406;2022-07-31T11:33:29;13.68;;;12.70;;
16642;SDS011;8435;52.184;5.406;2022-07-31T11:36:03;12.27;;;11.38;;
16642;SDS011;8435;52.184;5.406;2022-07-31T11:38:32;12.95;;;12.00;;
16642;SDS011;8435;52.184;5.406;2022-07-31T11:40:59;13.60;;;12.38;;
16642;SDS011;8435;52.184;5.406;2022-07-31T11:43:31;13.07;;;12.05;;
16642;SDS011;8435;52.184;5.406;2022-07-31T11:46:03;12.27;;;11.38;;
16642;SDS011;8435;52.184;5.406;2022-07-31T11:48:36;12.20;;;11.23;;
16642;SDS011;8435;52.184;5.406;2022-07-31T11:51:03;13.35;;;12.15;;
16642;SDS011;8435;52.184;5.406;2022-07-31T11:53:38;12.90;;;11.90;;
16642;SDS011;8435;52.184;5.406;2022-07-31T11:56:05;13.57;;;12.43;;
16642;SDS011;8435;52.184;5.406;2022-07-31T11:58:37;12.70;;;11.60;;
16642;SDS011;8435;52.184;5.406;2022-07-31T12:01:12;12.25;;;11.25;;
16642;SDS011;8435;52.184;5.406;2022-07-31T12:03:41;11.98;;;10.98;;
16642;SDS011;8435;52.184;5.406;2022-07-31T12:06:08;12.60;;;11.70;;
16642;SDS011;8435;52.184;5.406;2022-07-31T12:08:37;12.68;;;11.55;;
16642;SDS011;8435;52.184;5.406;2022-07-31T12:11:07;12.50;;;11.40;;
16642;SDS011;8435;52.184;5.406;2022-07-31T12:13:34;12.00;;;11.00;;
16642;SDS011;8435;52.184;5.406;2022-07-31T12:16:04;10.27;;;9.48;;
16642;SDS011;8435;52.184;5.406;2022-07-31T12:18:45;11.00;;;10.10;;
16642;SDS011;8435;52.184;5.406;2022-07-31T12:21:14;10.80;;;9.80;;
16642;SDS011;8435;52.184;5.406;2022-07-31T12:23:43;10.98;;;9.18;;
16642;SDS011;8435;52.184;5.406;2022-07-31T12:26:11;11.02;;;9.40;;
16642;SDS011;8435;52.184;5.406;2022-07-31T12:28:55;9.45;;;8.65;;
16642;SDS011;8435;52.184;5.406;2022-07-31T12:31:26;9.77;;;8.88;;
16642;SDS011;8435;52.184;5.406;2022-07-31T12:34:01;9.32;;;8.50;;
16642;SDS011;8435;52.184;5.406;2022-07-31T12:36:31;9.50;;;8.45;;
16642;SDS011;8435;52.184;5.406;2022-07-31T12:38:58;9.57;;;8.70;;
16642;SDS011;8435;52.184;5.406;2022-07-31T12:41:29;8.98;;;8.18;;
16642;SDS011;8435;52.184;5.406;2022-07-31T12:44:07;10.75;;;8.73;;
16642;SDS011;8435;52.184;5.406;2022-07-31T12:46:37;9.00;;;8.20;;
16642;SDS011;8435;52.184;5.406;2022-07-31T12:49:05;8.30;;;7.47;;
16642;SDS011;8435;52.184;5.406;2022-07-31T12:51:34;9.70;;;8.80;;
16642;SDS011;8435;52.184;5.406;2022-07-31T12:54:02;9.13;;;8.32;;
16642;SDS011;8435;52.184;5.406;2022-07-31T12:56:32;9.05;;;8.15;;
16642;SDS011;8435;52.184;5.406;2022-07-31T12:58:59;8.25;;;7.53;;
16642;SDS011;8435;52.184;5.406;2022-07-31T13:01:26;8.90;;;8.02;;
16642;SDS011;8435;52.184;5.406;2022-07-31T13:03:53;7.68;;;7.07;;
16642;SDS011;8435;52.184;5.406;2022-07-31T13:06:22;7.63;;;6.82;;
16642;SDS011;8435;52.184;5.406;2022-07-31T13:08:49;6.25;;;5.68;;
16642;SDS011;8435;52.184;5.406;2022-07-31T13:11:16;6.57;;;5.88;;
16642;SDS011;8435;52.184;5.406;2022-07-31T13:13:43;6.03;;;5.47;;
16642;SDS011;8435;52.184;5.406;2022-07-31T13:16:09;5.50;;;5.00;;
16642;SDS011;8435;52.184;5.406;2022-07-31T13:18:36;5.32;;;4.82;;
16642;SDS011;8435;52.184;5.406;2022-07-31T13:21:03;5.75;;;5.18;;
16642;SDS011;8435;52.184;5.406;2022-07-31T13:23:32;6.25;;;5.65;;
16642;SDS011;8435;52.184;5.406;2022-07-31T13:25:58;6.85;;;5.57;;
16642;SDS011;8435;52.184;5.406;2022-07-31T13:28:27;5.93;;;5.35;;
16642;SDS011;8435;52.184;5.406;2022-07-31T13:30:54;7.50;;;5.53;;
16642;SDS011;8435;52.184;5.406;2022-07-31T13:33:20;5.32;;;4.93;;
16642;SDS011;8435;52.184;5.406;2022-07-31T13:35:47;5.70;;;4.63;;
16642;SDS011;8435;52.184;5.406;2022-07-31T13:38:18;4.32;;;4.03;;
16642;SDS011;8435;52.184;5.406;2022-07-31T13:40:46;5.38;;;4.80;;
16642;SDS011;8435;52.184;5.406;2022-07-31T13:43:31;5.10;;;4.60;;
16642;SDS011;8435;52.184;5.406;2022-07-31T13:45:57;6.00;;;4.28;;
16642;SDS011;8435;52.184;5.406;2022-07-31T13:48:24;5.10;;;4.53;;
16642;SDS011;8435;52.184;5.406;2022-07-31T13:50:51;5.10;;;4.28;;
16642;SDS011;8435;52.184;5.406;2022-07-31T13:53:17;4.60;;;4.20;;
16642;SDS011;8435;52.184;5.406;2022-07-31T13:55:44;5.15;;;4.75;;
16642;SDS011;8435;52.184;5.406;2022-07-31T13:58:22;5.40;;;4.65;;
16642;SDS011;8435;52.184;5.406;2022-07-31T14:00:51;6.80;;;4.50;;
16642;SDS011;8435;52.184;5.406;2022-07-31T14:03:17;8.05;;;4.63;;
16642;SDS011;8435;52.184;5.406;2022-07-31T14:05:47;6.47;;;4.18;;
16642;SDS011;8435;52.184;5.406;2022-07-31T14:08:20;4.47;;;4.07;;
16642;SDS011;8435;52.184;5.406;2022-07-31T14:10:47;5.85;;;4.13;;
16642;SDS011;8435;52.184;5.406;2022-07-31T14:13:21;4.57;;;4.13;;
16642;SDS011;8435;52.184;5.406;2022-07-31T14:15:51;5.03;;;4.53;;
16642;SDS011;8435;52.184;5.406;2022-07-31T14:18:17;4.50;;;4.10;;
16642;SDS011;8435;52.184;5.406;2022-07-31T14:20:44;4.35;;;3.95;;
16642;SDS011;8435;52.184;5.406;2022-07-31T14:23:11;4.47;;;4.07;;
16642;SDS011;8435;52.184;5.406;2022-07-31T14:25:38;3.97;;;3.60;;
16642;SDS011;8435;52.184;5.406;2022-07-31T14:28:06;4.28;;;3.67;;
16642;SDS011;8435;52.184;5.406;2022-07-31T14:30:37;4.18;;;3.47;;
16642;SDS011;8435;52.184;5.406;2022-07-31T14:33:11;3.78;;;3.45;;
16642;SDS011;8435;52.184;5.406;2022-07-31T14:35:39;4.75;;;3.72;;
16642;SDS011;8435;52.184;5.406;2022-07-31T14:38:07;3.70;;;3.30;;
16642;SDS011;8435;52.184;5.406;2022-07-31T14:40:34;4.43;;;4.03;;
16642;SDS011;8435;52.184;5.406;2022-07-31T14:43:01;4.07;;;3.45;;
16642;SDS011;8435;52.184;5.406;2022-07-31T14:45:28;3.40;;;3.10;;
16642;SDS011;8435;52.184;5.406;2022-07-31T14:47:56;3.40;;;3.20;;
16642;SDS011;8435;52.184;5.406;2022-07-31T14:50:26;3.53;;;3.20;;
16642;SDS011;8435;52.184;5.406;2022-07-31T14:52:53;3.38;;;3.13;;
16642;SDS011;8435;52.184;5.406;2022-07-31T14:55:22;3.70;;;3.40;;
16642;SDS011;8435;52.184;5.406;2022-07-31T14:57:52;3.33;;;3.10;;
16642;SDS011;8435;52.184;5.406;2022-07-31T15:00:22;3.22;;;3.00;;
16642;SDS011;8435;52.184;5.406;2022-07-31T15:02:49;4.38;;;3.08;;